Time;durP1;ratioP1;P1;durP2;ratioP2;P2;SDS_P1;SDS_P2;PMS_P1;PMS_P2;Temp;Humidity;BMP_temperature;BMP_pressure;BME280_temperature;BME280_humidity;BME280_pressure;Samples;Min_cycle;Max_cycle;Signal;HPM_P1;HPM_P2
2022/08/04 00:00:05;;;;;;;3.83;3.63;;;21.40;55.60;;;;;;5005540;28;20455;-48
2022/08/04 00:02:45;;;;;;;3.63;3.43;;;21.30;42.90;;;;;;5010669;28;20463;-49
2022/08/04 00:05:23;;;;;;;4.83;4.43;;;21.30;55.70;;;;;;5008935;28;20475;-48
2022/08/04 00:08:01;;;;;;;4.17;3.77;;;21.30;33.60;;;;;;5011151;28;20953;-48
2022/08/04 00:10:28;;;;;;;3.90;3.80;;;21.30;44.30;;;;;;5007755;28;20957;-48
2022/08/04 00:13:00;;;;;;;4.80;3.70;;;21.30;41.40;;;;;;5009625;28;20459;-48
2022/08/04 00:15:27;;;;;;;4.23;4.00;;;21.30;45.10;;;;;;5006832;28;20484;-47
2022/08/04 00:17:59;;;;;;;4.50;4.30;;;21.30;44.40;;;;;;5010710;28;21018;-47
2022/08/04 00:20:30;;;;;;;3.90;3.70;;;21.20;44.00;;;;;;5007581;28;20455;-48
2022/08/04 00:22:57;;;;;;;6.73;3.90;;;21.30;42.30;;;;;;5005386;28;20460;-48
2022/08/04 00:25:25;;;;;;;3.80;3.60;;;21.20;48.30;;;;;;5010426;28;20488;-48
2022/08/04 00:27:52;;;;;;;4.13;3.83;;;21.20;46.90;;;;;;5010322;28;20537;-49
2022/08/04 00:30:20;;;;;;;4.00;3.70;;;21.10;47.40;;;;;;5006810;28;20984;-49
2022/08/04 00:32:47;;;;;;;4.17;3.87;;;21.20;44.50;;;;;;5007476;28;20472;-49
2022/08/04 00:35:14;;;;;;;4.50;4.20;;;21.10;44.80;;;;;;5008115;28;21015;-54
2022/08/04 00:37:45;;;;;;;4.53;4.13;;;21.20;46.50;;;;;;5007967;28;21099;-54
2022/08/04 00:40:21;;;;;;;4.07;3.87;;;21.10;23.40;;;;;;5008962;28;20820;-54
2022/08/04 00:42:54;;;;;;;8.00;4.63;;;21.10;35.60;;;;;;5011123;28;20501;-56
2022/08/04 00:45:44;;;;;;;7.73;4.53;;;21.00;41.60;;;;;;5006093;28;20525;-57
2022/08/04 00:48:24;;;;;;;4.90;4.50;;;21.00;39.60;;;;;;5001069;28;20452;-56
2022/08/04 00:51:00;;;;;;;4.93;4.57;;;21.00;38.70;;;;;;5008573;28;20451;-55
2022/08/04 00:53:43;;;;;;;4.50;4.20;;;21.00;34.60;;;;;;5008350;28;20460;-55
2022/08/04 00:56:31;;;;;;;4.13;3.90;;;20.90;21.30;;;;;;5002858;28;20546;-56
2022/08/04 00:59:10;;;;;;;4.10;3.90;;;20.90;29.20;;;;;;5003924;28;20460;-56
2022/08/04 01:01:55;;;;;;;4.60;4.20;;;20.80;26.00;;;;;;5007152;28;20493;-48
2022/08/04 01:04:49;;;;;;;4.10;3.90;;;20.80;31.50;;;;;;5004058;28;20475;-49
2022/08/04 01:07:56;;;;;;;5.17;4.87;;;20.80;20.80;;;;;;5005666;28;20507;-49
2022/08/04 01:10:31;;;;;;;4.77;4.57;;;20.70;21.30;;;;;;4945110;29;20915;-49
2022/08/04 01:13:29;;;;;;;5.17;4.60;;;20.60;28.70;;;;;;4997087;28;20513;-49
2022/08/04 01:16:02;;;;;;;4.83;4.43;;;20.60;23.60;;;;;;5008000;28;20981;-49
2022/08/04 01:18:39;;;;;;;4.60;4.30;;;20.60;81.50;;;;;;5002057;28;20468;-49
2022/08/04 01:22:01;;;;;;;4.23;4.00;;;20.50;20.00;;;;;;5003752;28;21047;-48
2022/08/04 01:24:58;;;;;;;4.40;4.10;;;20.50;22.30;;;;;;4945139;29;21038;-48
2022/08/04 01:27:34;;;;;;;4.80;4.40;;;20.40;20.30;;;;;;4942777;28;20492;-48
2022/08/04 01:30:02;;;;;;;4.27;3.97;;;20.30;80.00;;;;;;4995165;28;20545;-48
2022/08/04 01:32:34;;;;;;;4.77;4.47;;;20.30;99.70;;;;;;5009336;28;20463;-49
2022/08/04 01:35:03;;;;;;;4.90;4.50;;;20.30;89.10;;;;;;5007991;28;20977;-49
2022/08/04 01:37:43;;;;;;;7.93;4.57;;;20.30;98.90;;;;;;5006876;28;20520;-49
2022/08/04 01:40:14;;;;;;;4.63;4.10;;;20.20;99.90;;;;;;5006619;28;20958;-49
2022/08/04 01:42:44;;;;;;;4.83;4.33;;;20.20;99.90;;;;;;5009842;28;20463;-49
2022/08/04 01:45:13;;;;;;;4.10;3.90;;;20.10;89.50;;;;;;5005571;28;20487;-49
2022/08/04 01:47:48;;;;;;;5.27;4.87;;;20.10;99.90;;;;;;5004122;28;20468;-49
2022/08/04 01:50:14;;;;;;;5.00;4.70;;;20.10;99.90;;;;;;5005633;28;20455;-49
2022/08/04 01:52:43;;;;;;;5.13;4.20;;;20.10;99.90;;;;;;5006117;28;20976;-49
2022/08/04 01:55:12;;;;;;;4.80;4.50;;;20.00;99.90;;;;;;5009074;28;20889;-49
2022/08/04 01:57:43;;;;;;;6.70;4.77;;;20.00;99.90;;;;;;5009068;28;20463;-50
2022/08/04 02:00:13;;;;;;;4.40;4.20;;;20.00;99.90;;;;;;5006871;28;20545;-47
2022/08/04 02:02:40;;;;;;;4.70;4.40;;;19.90;99.90;;;;;;5008958;28;20467;-48
2022/08/04 02:05:09;;;;;;;4.87;4.20;;;19.90;99.90;;;;;;4999830;28;20473;-48
2022/08/04 02:07:48;;;;;;;4.30;4.00;;;19.90;99.90;;;;;;5005781;28;20503;-48
2022/08/04 02:10:27;;;;;;;5.27;4.97;;;19.80;99.90;;;;;;5005656;28;20491;-47
2022/08/04 02:13:05;;;;;;;4.60;4.30;;;19.80;99.90;;;;;;5005923;28;20483;-48
2022/08/04 02:15:41;;;;;;;5.07;4.77;;;19.80;99.90;;;;;;5005210;28;20577;-48
2022/08/04 02:18:15;;;;;;;4.57;4.17;;;19.70;99.90;;;;;;5010583;28;20463;-49
2022/08/04 02:20:45;;;;;;;10.90;4.97;;;19.70;99.90;;;;;;5013303;28;20549;-49
2022/08/04 02:23:15;;;;;;;5.77;5.20;;;19.70;99.90;;;;;;5008434;28;20460;-48
2022/08/04 02:25:46;;;;;;;4.67;4.37;;;19.70;99.90;;;;;;5008472;28;20503;-49
2022/08/04 02:28:22;;;;;;;4.50;4.13;;;19.70;99.90;;;;;;5012020;28;20518;-56
2022/08/04 02:31:01;;;;;;;4.90;4.50;;;19.60;99.90;;;;;;5006012;28;20550;-55
2022/08/04 02:33:35;;;;;;;4.53;4.13;;;19.60;99.90;;;;;;5014271;28;20813;-56
2022/08/04 02:36:04;;;;;;;4.77;4.30;;;19.50;99.90;;;;;;5064003;23;20611;-53
2022/08/04 02:38:53;;;;;;;5.20;4.80;;;19.50;99.90;;;;;;5062985;28;20500;-53
2022/08/04 02:41:22;;;;;;;4.50;4.30;;;19.50;99.90;;;;;;5064144;28;20488;-51
2022/08/04 02:43:49;;;;;;;5.27;4.90;;;19.50;99.90;;;;;;5074452;28;20519;-54
2022/08/04 02:46:18;;;;;;;5.10;4.67;;;19.40;99.90;;;;;;5058845;28;21426;-53
2022/08/04 02:48:47;;;;;;;4.83;4.40;;;19.40;99.90;;;;;;5066601;28;20584;-52
2022/08/04 02:51:16;;;;;;;4.37;4.17;;;19.40;99.90;;;;;;5059871;28;20486;-52
2022/08/04 02:53:43;;;;;;;4.10;3.90;;;19.40;99.90;;;;;;5057877;28;20461;-52
2022/08/04 02:56:15;;;;;;;4.30;4.00;;;19.30;99.90;;;;;;5058557;28;20481;-51
2022/08/04 02:58:46;;;;;;;4.03;3.83;;;19.40;99.90;;;;;;5064640;28;20480;-53
2022/08/04 03:01:12;;;;;;;4.77;4.47;;;19.30;99.90;;;;;;5061026;28;20511;-52
2022/08/04 03:03:48;;;;;;;4.60;4.30;;;19.40;99.90;;;;;;5067006;28;20496;-51
2022/08/04 03:06:40;;;;;;;4.93;4.70;;;19.30;99.90;;;;;;5061816;28;20508;-51
2022/08/04 03:09:38;;;;;;;4.87;4.50;;;19.30;99.90;;;;;;5057209;28;20859;-53
2022/08/04 03:12:37;;;;;;;4.80;4.50;;;19.30;99.90;;;;;;5062290;28;20970;-53
2022/08/04 03:15:31;;;;;;;4.77;4.47;;;19.20;99.90;;;;;;5058013;28;20469;-52
2022/08/04 03:18:24;;;;;;;6.17;3.93;;;19.30;99.90;;;;;;5062261;28;20978;-52
2022/08/04 03:21:24;;;;;;;4.80;4.20;;;19.20;99.90;;;;;;5051474;28;20982;-54
2022/08/04 03:24:16;;;;;;;4.17;3.93;;;19.20;99.90;;;;;;5055578;28;20800;-53
2022/08/04 03:27:09;;;;;;;4.70;4.40;;;19.20;99.90;;;;;;5061629;28;20479;-51
2022/08/04 03:30:08;;;;;;;4.20;4.00;;;19.20;99.90;;;;;;5060266;28;20488;-53
2022/08/04 03:33:09;;;;;;;4.63;3.83;;;19.20;99.90;;;;;;5055108;28;20485;-52
2022/08/04 03:35:57;;;;;;;5.03;4.70;;;19.20;99.90;;;;;;5064160;28;20554;-52
2022/08/04 03:38:56;;;;;;;4.63;4.33;;;19.10;99.90;;;;;;5060751;28;21060;-52
2022/08/04 03:41:42;;;;;;;4.20;4.00;;;19.10;99.90;;;;;;5056830;28;20525;-51
2022/08/04 03:44:44;;;;;;;6.17;4.77;;;19.10;99.90;;;;;;5052369;28;20804;-51
2022/08/04 03:47:35;;;;;;;5.70;4.70;;;19.10;99.90;;;;;;5057892;28;20492;-53
2022/08/04 03:50:37;;;;;;;5.50;4.30;;;19.10;99.90;;;;;;5058374;28;20485;-52
2022/08/04 03:53:30;;;;;;;5.00;4.70;;;19.10;99.90;;;;;;5060895;28;20882;-52
2022/08/04 03:56:14;;;;;;;4.60;4.40;;;19.00;99.90;;;;;;5062651;28;20560;-52
2022/08/04 03:59:17;;;;;;;5.47;5.07;;;19.10;99.90;;;;;;5067359;28;20453;-53
2022/08/04 04:02:00;;;;;;;4.20;4.00;;;19.10;99.90;;;;;;5059735;28;21008;-53
2022/08/04 04:04:59;;;;;;;5.70;4.90;;;19.10;99.90;;;;;;5061162;28;20512;-53
2022/08/04 04:07:55;;;;;;;4.73;4.43;;;19.10;99.90;;;;;;5062461;28;20946;-52
2022/08/04 04:10:37;;;;;;;12.57;4.63;;;19.10;99.90;;;;;;5055616;28;20497;-53
2022/08/04 04:13:27;;;;;;;4.50;4.20;;;19.10;99.90;;;;;;5063081;28;20492;-53
2022/08/04 04:16:17;;;;;;;5.00;4.60;;;19.10;99.90;;;;;;5054479;28;20505;-52
2022/08/04 04:18:54;;;;;;;4.50;4.20;;;19.10;99.90;;;;;;5063077;28;20523;-52
2022/08/04 04:21:28;;;;;;;4.50;4.20;;;19.10;99.90;;;;;;5065349;28;20477;-52
2022/08/04 04:24:11;;;;;;;4.83;4.43;;;19.10;99.90;;;;;;5058393;28;20582;-51
2022/08/04 04:26:51;;;;;;;5.10;4.70;;;19.20;99.90;;;;;;5066240;28;20477;-53
2022/08/04 04:29:34;;;;;;;5.47;5.00;;;19.20;99.90;;;;;;5059512;28;20454;-51
2022/08/04 04:32:17;;;;;;;4.40;4.13;;;19.20;99.90;;;;;;5056737;28;20488;-52
2022/08/04 04:35:04;;;;;;;6.17;4.70;;;19.20;99.90;;;;;;5055013;28;20542;-52
2022/08/04 04:37:48;;;;;;;6.90;5.27;;;19.30;99.90;;;;;;5060320;28;20512;-52
2022/08/04 04:40:27;;;;;;;5.43;5.00;;;19.30;99.90;;;;;;5061614;28;20510;-54
2022/08/04 04:43:22;;;;;;;5.30;4.87;;;19.40;99.90;;;;;;5066063;28;20961;-54
2022/08/04 04:45:55;;;;;;;5.13;4.73;;;19.40;99.90;;;;;;5061294;28;20513;-52
2022/08/04 04:48:33;;;;;;;5.43;5.03;;;19.50;99.90;;;;;;5056006;28;20485;-52
2022/08/04 04:51:08;;;;;;;5.37;4.93;;;19.50;99.90;;;;;;5053847;28;20516;-52
2022/08/04 04:53:44;;;;;;;5.50;4.90;;;19.60;99.90;;;;;;5059314;28;21040;-52
2022/08/04 04:56:17;;;;;;;5.20;4.70;;;19.60;99.90;;;;;;5059684;28;20492;-51
2022/08/04 04:58:44;;;;;;;7.60;5.13;;;19.70;99.90;;;;;;5061695;28;20496;-52
2022/08/04 05:01:37;;;;;;;5.20;4.80;;;19.70;99.90;;;;;;5053197;28;20497;-53
2022/08/04 05:04:26;;;;;;;5.13;4.63;;;19.80;99.90;;;;;;5056436;28;20532;-51
2022/08/04 05:07:10;;;;;;;7.77;4.73;;;19.90;99.90;;;;;;5062194;28;20481;-52
2022/08/04 05:09:50;;;;;;;7.70;5.17;;;20.00;99.90;;;;;;5059421;28;20454;-51
2022/08/04 05:12:41;;;;;;;9.03;4.73;;;20.00;99.90;;;;;;5058593;28;20507;-52
2022/08/04 05:15:10;;;;;;;5.40;5.00;;;20.20;99.90;;;;;;5062816;28;20504;-52
2022/08/04 05:17:38;;;;;;;4.93;4.47;;;20.20;99.90;;;;;;5061892;28;20517;-53
2022/08/04 05:20:10;;;;;;;5.37;4.90;;;20.30;99.90;;;;;;5068601;28;20510;-53
2022/08/04 05:22:41;;;;;;;6.23;4.87;;;20.40;99.90;;;;;;5059526;28;20527;-54
2022/08/04 05:25:14;;;;;;;7.20;5.30;;;20.50;99.90;;;;;;5059951;28;20504;-51
2022/08/04 05:27:46;;;;;;;12.93;4.90;;;20.70;99.90;;;;;;5059812;28;20492;-52
2022/08/04 05:30:13;;;;;;;6.80;4.50;;;20.80;99.90;;;;;;5060656;28;20488;-51
2022/08/04 05:32:47;;;;;;;6.77;5.10;;;20.90;99.90;;;;;;5064893;28;20692;-52
2022/08/04 05:35:22;;;;;;;12.93;4.80;;;21.00;99.90;;;;;;5053834;28;20508;-51
2022/08/04 05:37:51;;;;;;;7.00;4.47;;;21.00;99.90;;;;;;5057258;28;20512;-51
2022/08/04 05:40:19;;;;;;;6.10;4.27;;;21.20;27.80;;;;;;5055874;28;21053;-52
2022/08/04 05:42:48;;;;;;;6.60;4.47;;;21.40;67.40;;;;;;5062194;28;20488;-51
2022/08/04 05:45:15;;;;;;;5.77;5.00;;;21.60;73.90;;;;;;5058246;28;20481;-53
2022/08/04 05:47:43;;;;;;;5.53;5.10;;;21.80;81.10;;;;;;5057232;28;20484;-50
2022/08/04 05:50:09;;;;;;;8.77;5.67;;;22.00;86.80;;;;;;5064917;28;20485;-52
2022/08/04 05:52:38;;;;;;;4.90;4.60;;;22.10;95.70;;;;;;5063823;28;20479;-51
2022/08/04 05:55:07;;;;;;;7.83;5.50;;;22.30;99.70;;;;;;5062704;28;20504;-53
2022/08/04 05:57:34;;;;;;;5.03;4.60;;;22.50;99.90;;;;;;5059884;28;20481;-53
2022/08/04 06:00:05;;;;;;;5.73;5.07;;;22.60;99.90;;;;;;5065012;28;20591;-52
2022/08/04 06:02:33;;;;;;;5.13;4.33;;;22.70;99.90;;;;;;5063980;28;20540;-53
2022/08/04 06:05:01;;;;;;;5.90;5.30;;;22.70;99.90;;;;;;5070581;28;20553;-52
2022/08/04 06:07:28;;;;;;;9.73;5.03;;;22.80;99.90;;;;;;5074587;28;20985;-52
2022/08/04 06:09:56;;;;;;;15.33;5.03;;;23.00;99.90;;;;;;5073790;28;20865;-52
2022/08/04 06:12:26;;;;;;;8.53;4.93;;;23.10;99.90;;;;;;5072395;28;20465;-52
2022/08/04 06:14:56;;;;;;;6.00;4.77;;;23.20;99.90;;;;;;5067421;28;20890;-53
2022/08/04 06:17:29;;;;;;;6.13;5.00;;;23.30;99.90;;;;;;5063749;28;20567;-53
2022/08/04 06:19:57;;;;;;;7.47;6.33;;;23.40;99.90;;;;;;5065052;28;21018;-52
2022/08/04 06:22:25;;;;;;;11.60;4.97;;;23.40;99.90;;;;;;5061181;28;20530;-52
2022/08/04 06:24:55;;;;;;;5.17;4.73;;;23.50;99.90;;;;;;5064741;28;20484;-51
2022/08/04 06:27:24;;;;;;;7.70;4.80;;;23.70;99.90;;;;;;5063429;28;20457;-53
2022/08/04 06:29:53;;;;;;;4.77;4.27;;;23.80;99.90;;;;;;5070281;28;20507;-52
2022/08/04 06:32:27;;;;;;;5.27;4.40;;;23.80;99.90;;;;;;5058047;28;20469;-51
2022/08/04 06:34:56;;;;;;;7.70;5.00;;;23.90;99.90;;;;;;5065499;28;20499;-52
2022/08/04 06:37:23;;;;;;;4.80;4.40;;;24.10;99.90;;;;;;5071572;28;20495;-52
2022/08/04 06:39:51;;;;;;;6.80;4.90;;;24.20;99.90;;;;;;5064169;28;20495;-53
2022/08/04 06:42:21;;;;;;;8.00;5.13;;;24.30;99.90;;;;;;5060470;28;20512;-54
2022/08/04 06:44:51;;;;;;;11.70;6.60;;;24.30;99.90;;;;;;5060196;28;20559;-53
2022/08/04 06:47:19;;;;;;;5.20;4.33;;;24.40;99.90;;;;;;5061629;28;20497;-53
2022/08/04 06:49:49;;;;;;;5.43;4.97;;;24.50;99.90;;;;;;5061330;28;20453;-53
2022/08/04 06:52:17;;;;;;;15.43;4.60;;;24.50;99.90;;;;;;5072127;28;20493;-52
2022/08/04 06:54:44;;;;;;;5.40;4.90;;;24.60;99.90;;;;;;5062327;28;20504;-51
2022/08/04 06:57:13;;;;;;;5.93;5.10;;;24.60;99.90;;;;;;5069181;28;20509;-52
2022/08/04 06:59:42;;;;;;;7.83;4.90;;;24.70;99.90;;;;;;5066321;28;20467;-53
2022/08/04 07:02:15;;;;;;;7.47;4.50;;;24.90;99.90;;;;;;5061372;28;20493;-53
2022/08/04 07:04:42;;;;;;;5.43;4.70;;;25.00;99.90;;;;;;5067767;28;20571;-51
2022/08/04 07:07:10;;;;;;;5.53;4.80;;;25.20;99.90;;;;;;5068030;28;20523;-52
2022/08/04 07:09:37;;;;;;;9.23;4.70;;;25.30;99.90;;;;;;5059437;28;20492;-53
2022/08/04 07:12:05;;;;;;;5.27;4.77;;;25.40;99.90;;;;;;5064341;28;20520;-53
2022/08/04 07:14:34;;;;;;;11.50;4.00;;;25.60;99.90;;;;;;5060145;28;20910;-53
2022/08/04 07:17:03;;;;;;;17.70;4.80;;;25.80;99.90;;;;;;5059054;28;20457;-52
2022/08/04 07:19:31;;;;;;;11.50;4.57;;;25.90;99.90;;;;;;5065490;28;20460;-53
2022/08/04 07:21:59;;;;;;;8.63;4.27;;;26.10;99.90;;;;;;5070166;28;20453;-53
2022/08/04 07:24:30;;;;;;;8.37;4.70;;;26.30;99.90;;;;;;5059667;28;20517;-52
2022/08/04 07:26:57;;;;;;;4.80;3.73;;;26.50;99.90;;;;;;5069028;28;20457;-52
2022/08/04 07:29:24;;;;;;;15.80;5.27;;;26.70;99.90;;;;;;5063131;28;20713;-51
2022/08/04 07:31:51;;;;;;;5.03;4.53;;;26.80;99.90;;;;;;5054253;28;20493;-53
2022/08/04 07:34:19;;;;;;;8.03;3.93;;;26.90;99.90;;;;;;5070951;28;20543;-52
2022/08/04 07:36:47;;;;;;;7.63;4.57;;;27.00;99.90;;;;;;5066602;28;20478;-52
2022/08/04 07:39:14;;;;;;;5.00;4.33;;;27.10;99.90;;;;;;5056149;28;20558;-53
2022/08/04 07:41:43;;;;;;;4.70;3.50;;;27.20;99.90;;;;;;5067620;28;20469;-53
2022/08/04 07:44:10;;;;;;;10.00;4.30;;;27.20;99.90;;;;;;5057194;28;20466;-51
2022/08/04 07:46:37;;;;;;;3.70;3.40;;;27.30;99.90;;;;;;5068239;28;20533;-52
2022/08/04 07:49:04;;;;;;;7.60;3.70;;;27.40;99.90;;;;;;5060576;28;20487;-52
2022/08/04 07:51:34;;;;;;;7.23;3.40;;;27.50;99.90;;;;;;5066063;28;20502;-52
2022/08/04 07:54:04;;;;;;;4.53;3.90;;;27.50;99.90;;;;;;5068537;28;20808;-52
2022/08/04 07:56:31;;;;;;;6.80;4.40;;;27.60;99.90;;;;;;5068804;28;20485;-53
2022/08/04 07:58:59;;;;;;;14.23;4.50;;;27.70;99.90;;;;;;5064264;28;20492;-52
2022/08/04 08:01:26;;;;;;;12.10;3.60;;;27.80;99.90;;;;;;5059734;28;20494;-51
2022/08/04 08:03:55;;;;;;;7.43;3.50;;;28.00;99.90;;;;;;5053812;28;20845;-53
2022/08/04 08:06:22;;;;;;;5.93;3.90;;;28.00;99.90;;;;;;5063317;28;20535;-53
2022/08/04 08:08:49;;;;;;;7.67;4.20;;;28.20;99.90;;;;;;5064122;28;20477;-51
2022/08/04 08:11:18;;;;;;;3.60;3.30;;;28.30;99.90;;;;;;5061202;28;20516;-52
2022/08/04 08:13:45;;;;;;;4.00;3.57;;;28.40;99.90;;;;;;5062345;28;20488;-51
2022/08/04 08:16:12;;;;;;;7.43;4.10;;;28.60;99.90;;;;;;5062904;28;21057;-52
2022/08/04 08:18:39;;;;;;;11.23;3.20;;;28.70;99.90;;;;;;5058006;28;20521;-52
2022/08/04 08:21:06;;;;;;;4.70;3.50;;;28.80;99.90;;;;;;5054020;28;20550;-52
2022/08/04 08:23:35;;;;;;;3.93;2.87;;;29.00;99.90;;;;;;5062847;28;20458;-52
2022/08/04 08:26:02;;;;;;;3.30;3.10;;;29.20;99.90;;;;;;5070339;28;20473;-52
2022/08/04 08:28:30;;;;;;;2.63;2.43;;;29.30;99.90;;;;;;5056577;28;20461;-51
2022/08/04 08:30:56;;;;;;;2.90;2.70;;;29.50;99.90;;;;;;5052736;28;20493;-52
2022/08/04 08:33:25;;;;;;;3.33;3.00;;;29.70;99.90;;;;;;5058552;28;20520;-52
2022/08/04 08:35:58;;;;;;;2.97;2.87;;;29.80;99.90;;;;;;5055692;23;20522;-51
2022/08/04 08:38:37;;;;;;;5.57;2.77;;;30.00;99.90;;;;;;5030819;28;20470;-52
2022/08/04 08:41:23;;;;;;;2.93;2.63;;;30.20;99.90;;;;;;5027691;28;20471;-52
2022/08/04 08:44:10;;;;;;;8.70;3.33;;;30.40;99.90;;;;;;5019874;28;20903;-53
2022/08/04 08:46:52;;;;;;;5.43;2.63;;;30.50;99.90;;;;;;5027653;28;20481;-52
2022/08/04 08:49:47;;;;;;;3.03;2.63;;;30.60;99.90;;;;;;5031035;28;20487;-52
2022/08/04 08:52:27;;;;;;;2.60;2.30;;;30.70;99.90;;;;;;5026100;28;20498;-52
2022/08/04 08:55:03;;;;;;;4.93;2.47;;;30.80;99.90;;;;;;5025881;28;20477;-52
2022/08/04 08:57:42;;;;;;;2.63;2.47;;;30.90;99.90;;;;;;5023063;28;20502;-52
2022/08/04 09:00:16;;;;;;;2.50;2.03;;;31.00;99.90;;;;;;5029420;28;20497;-52
2022/08/04 09:03:29;;;;;;;2.50;2.30;;;31.10;99.90;;;;;;5021180;28;20454;-51
2022/08/04 09:06:15;;;;;;;5.20;2.60;;;31.40;99.90;;;;;;5021423;28;20524;-52
2022/08/04 09:08:56;;;;;;;2.70;2.50;;;31.70;99.90;;;;;;5023177;28;20579;-52
2022/08/04 09:11:27;;;;;;;2.70;1.97;;;32.00;99.90;;;;;;5020021;28;20467;-52
2022/08/04 09:13:57;;;;;;;4.03;2.63;;;32.10;99.90;;;;;;5022187;28;20532;-51
2022/08/04 09:16:34;;;;;;;7.30;2.17;;;32.20;99.90;;;;;;5028549;28;20912;-51
2022/08/04 09:19:08;;;;;;;3.23;2.00;;;32.30;99.90;;;;;;5023809;28;20540;-51
2022/08/04 09:21:41;;;;;;;2.20;2.10;;;32.60;99.90;;;;;;5025789;28;20983;-51
2022/08/04 09:24:14;;;;;;;4.83;2.60;;;32.90;99.90;;;;;;5026909;28;20540;-52
2022/08/04 09:26:46;;;;;;;6.63;2.07;;;33.10;99.90;;;;;;5028700;28;20612;-52
2022/08/04 09:29:19;;;;;;;6.17;2.60;;;33.30;99.90;;;;;;5031847;28;20981;-52
2022/08/04 09:31:56;;;;;;;7.00;2.50;;;33.20;99.90;;;;;;5026392;28;20520;-51
2022/08/04 09:34:34;;;;;;;4.60;2.13;;;33.10;99.90;;;;;;5035411;28;20488;-52
2022/08/04 09:37:11;;;;;;;2.23;2.00;;;33.10;99.90;;;;;;5034211;28;20994;-53
2022/08/04 09:39:47;;;;;;;2.03;1.93;;;33.10;99.90;;;;;;5035144;28;20521;-51
2022/08/04 09:42:23;;;;;;;4.23;1.90;;;33.10;99.90;;;;;;5034385;28;20469;-51
2022/08/04 09:45:01;;;;;;;2.30;2.10;;;33.20;99.90;;;;;;5026938;28;20987;-52
2022/08/04 09:47:38;;;;;;;4.20;2.13;;;33.20;99.90;;;;;;5031658;28;20911;-51
2022/08/04 09:50:14;;;;;;;9.33;1.30;;;33.20;99.90;;;;;;5030891;28;20555;-52
2022/08/04 09:52:47;;;;;;;1.90;1.80;;;33.30;99.90;;;;;;5031263;28;20458;-52
2022/08/04 09:55:25;;;;;;;1.90;1.80;;;33.30;99.90;;;;;;5030670;28;20526;-52
2022/08/04 09:58:05;;;;;;;4.40;1.63;;;33.40;99.90;;;;;;5031780;28;20846;-52
2022/08/04 10:00:40;;;;;;;1.73;1.63;;;33.40;99.90;;;;;;5024985;28;20500;-52
2022/08/04 10:03:11;;;;;;;3.77;1.53;;;33.50;99.90;;;;;;5023893;28;20465;-51
2022/08/04 10:05:49;;;;;;;3.23;2.00;;;33.60;99.90;;;;;;5026219;28;20506;-52
2022/08/04 10:08:29;;;;;;;2.03;1.80;;;33.70;99.90;;;;;;5026875;28;20482;-52
2022/08/04 10:11:03;;;;;;;4.40;1.70;;;33.70;99.90;;;;;;5030234;28;20473;-52
2022/08/04 10:13:45;;;;;;;8.53;1.40;;;33.70;99.90;;;;;;5032147;28;20940;-51
2022/08/04 10:16:30;;;;;;;4.30;2.23;;;33.50;99.90;;;;;;5029674;28;20564;-52
2022/08/04 10:19:10;;;;;;;1.40;1.40;;;33.50;99.90;;;;;;5024823;28;20474;-52
2022/08/04 10:21:46;;;;;;;2.23;2.00;;;33.50;99.90;;;;;;5020494;28;20505;-51
2022/08/04 10:24:30;;;;;;;1.70;1.70;;;33.50;99.90;;;;;;5023991;28;20583;-52
2022/08/04 10:27:05;;;;;;;2.10;2.00;;;33.70;99.90;;;;;;5030942;28;20956;-51
2022/08/04 10:29:41;;;;;;;2.13;1.80;;;33.70;99.90;;;;;;5027950;28;20480;-52
2022/08/04 10:32:15;;;;;;;2.50;1.70;;;33.70;99.90;;;;;;5016986;28;20505;-51
2022/08/04 10:34:58;;;;;;;1.70;1.60;;;33.60;99.90;;;;;;5028281;28;20965;-52
2022/08/04 10:37:28;;;;;;;1.60;1.50;;;33.60;99.90;;;;;;5023242;28;21027;-51
2022/08/04 10:42:56;;;;;;;1.87;1.77;;;33.80;99.90;;;;;;5035912;28;20454;-52
2022/08/04 10:45:27;;;;;;;2.90;1.80;;;33.90;99.90;;;;;;5024917;28;20486;-51
2022/08/04 10:48:01;;;;;;;1.87;1.77;;;34.00;99.90;;;;;;5033516;28;20479;-52
2022/08/04 10:50:30;;;;;;;16.00;2.20;;;34.00;99.90;;;;;;5026872;28;20547;-51
2022/08/04 10:53:03;;;;;;;2.33;2.20;;;34.30;99.90;;;;;;5022166;28;20906;-52
2022/08/04 10:55:35;;;;;;;2.93;1.97;;;34.20;99.90;;;;;;5023748;28;20483;-51
2022/08/04 10:58:05;;;;;;;3.30;1.73;;;34.30;99.90;;;;;;5026651;28;20492;-50
2022/08/04 11:00:36;;;;;;;7.20;2.17;;;34.60;99.90;;;;;;5033172;28;20442;-50
2022/08/04 11:03:08;;;;;;;1.80;1.70;;;34.70;99.90;;;;;;5024023;28;21032;-52
2022/08/04 11:05:41;;;;;;;5.53;2.17;;;34.60;99.90;;;;;;5025581;28;20995;-52
2022/08/04 11:08:11;;;;;;;1.80;1.70;;;34.60;99.90;;;;;;5023298;28;20466;-52
2022/08/04 11:10:45;;;;;;;2.00;1.90;;;34.50;99.90;;;;;;5025095;28;20988;-52
2022/08/04 11:13:15;;;;;;;2.20;2.00;;;34.50;99.90;;;;;;5026014;28;20486;-53
2022/08/04 11:15:49;;;;;;;8.33;2.00;;;34.70;99.90;;;;;;5028017;28;21044;-52
2022/08/04 11:18:23;;;;;;;1.87;1.77;;;34.70;99.90;;;;;;5024223;28;20570;-52
2022/08/04 11:20:56;;;;;;;1.83;1.73;;;34.70;99.90;;;;;;5026327;28;20486;-51
2022/08/04 11:23:28;;;;;;;3.13;2.37;;;34.70;99.90;;;;;;5023367;28;20842;-52
2022/08/04 11:26:00;;;;;;;7.60;2.00;;;34.70;99.90;;;;;;5031464;28;20512;-52
2022/08/04 11:28:38;;;;;;;8.60;2.20;;;34.80;99.90;;;;;;5029209;28;20463;-52
2022/08/04 11:31:07;;;;;;;3.13;1.70;;;34.80;99.90;;;;;;5024556;28;20541;-52
2022/08/04 11:33:41;;;;;;;4.33;2.40;;;34.90;99.90;;;;;;5029424;28;20513;-52
2022/08/04 11:36:16;;;;;;;2.50;2.30;;;34.80;99.90;;;;;;5031462;28;20547;-52
2022/08/04 11:38:49;;;;;;;3.33;2.20;;;34.70;99.90;;;;;;5032392;28;20575;-52
2022/08/04 11:41:21;;;;;;;2.63;2.43;;;34.70;99.90;;;;;;5029938;28;20545;-52
2022/08/04 11:43:54;;;;;;;5.50;2.50;;;34.80;99.90;;;;;;5029914;28;20857;-51
2022/08/04 11:46:26;;;;;;;6.00;2.73;;;34.80;99.90;;;;;;5026474;28;20883;-52
2022/08/04 11:49:00;;;;;;;4.63;3.30;;;34.80;99.90;;;;;;5032157;28;20470;-52
2022/08/04 11:51:29;;;;;;;14.30;4.07;;;34.80;99.90;;;;;;5027381;28;20493;-52
2022/08/04 11:53:58;;;;;;;8.83;3.23;;;34.90;99.90;;;;;;5033301;28;20533;-52
2022/08/04 11:56:24;;;;;;;3.50;3.30;;;34.90;99.90;;;;;;5024408;28;20478;-52
2022/08/04 11:58:51;;;;;;;3.20;3.00;;;34.90;99.90;;;;;;5026976;28;20514;-51
2022/08/04 12:01:25;;;;;;;5.70;2.70;;;35.00;99.90;;;;;;5028647;28;20529;-50
2022/08/04 12:04:03;;;;;;;8.30;5.97;;;35.00;99.90;;;;;;5029578;28;20490;-51
2022/08/04 12:06:38;;;;;;;7.50;6.57;;;34.90;99.90;;;;;;5034569;28;20569;-51
2022/08/04 12:09:12;;;;;;;6.73;5.93;;;34.90;99.90;;;;;;5029211;28;20485;-51
2022/08/04 12:11:48;;;;;;;7.20;6.50;;;34.80;99.90;;;;;;5029463;28;20458;-52
2022/08/04 12:14:26;;;;;;;8.37;7.10;;;34.90;99.90;;;;;;5026584;28;20487;-51
2022/08/04 12:16:59;;;;;;;17.80;6.70;;;35.00;99.90;;;;;;5028357;28;20478;-52
2022/08/04 12:19:31;;;;;;;5.67;5.03;;;35.00;99.90;;;;;;5028048;28;20481;-51
2022/08/04 12:22:03;;;;;;;3.90;3.60;;;34.90;99.90;;;;;;5031665;28;20451;-51
2022/08/04 12:24:34;;;;;;;7.30;3.83;;;34.90;99.90;;;;;;5025018;28;20566;-52
2022/08/04 12:27:08;;;;;;;4.80;4.40;;;34.90;99.90;;;;;;5028945;28;20514;-52
2022/08/04 12:29:40;;;;;;;7.23;4.27;;;35.00;99.90;;;;;;5030598;28;20508;-51
2022/08/04 12:32:17;;;;;;;8.00;5.53;;;34.90;99.90;;;;;;5030814;28;20508;-51
2022/08/04 12:34:50;;;;;;;7.57;6.30;;;35.10;99.90;;;;;;5031901;28;20461;-53
2022/08/04 12:37:37;;;;;;;8.67;6.73;;;35.20;99.90;;;;;;5032540;28;20457;-52
2022/08/04 12:40:12;;;;;;;4.30;4.00;;;35.20;99.90;;;;;;5029957;28;20503;-51
2022/08/04 12:42:45;;;;;;;8.83;3.97;;;35.30;99.90;;;;;;5025271;28;20462;-52
2022/08/04 12:45:14;;;;;;;5.97;4.00;;;35.30;99.90;;;;;;5024228;28;20486;-52
2022/08/04 12:47:41;;;;;;;6.77;5.07;;;35.40;99.90;;;;;;5025756;28;20916;-52
2022/08/04 12:50:10;;;;;;;5.93;5.03;;;35.40;99.90;;;;;;5031912;28;20512;-50
2022/08/04 12:52:44;;;;;;;13.10;4.40;;;35.40;99.90;;;;;;5033411;28;20956;-52
2022/08/04 12:55:11;;;;;;;18.43;11.10;;;35.40;99.90;;;;;;5024591;28;20904;-52
2022/08/04 12:57:39;;;;;;;22.60;12.60;;;35.30;99.90;;;;;;5027633;28;20521;-51
2022/08/04 13:00:07;;;;;;;21.77;12.30;;;35.10;99.90;;;;;;5029297;28;20574;-51
2022/08/04 13:02:40;;;;;;;14.87;11.40;;;35.20;99.90;;;;;;5029980;28;20578;-51
2022/08/04 13:05:09;;;;;;;15.70;12.20;;;35.10;99.90;;;;;;5023221;28;20490;-51
2022/08/04 13:07:40;;;;;;;12.67;11.10;;;35.10;99.90;;;;;;5028492;28;20882;-52
2022/08/04 13:10:12;;;;;;;12.73;10.33;;;35.00;99.90;;;;;;5033420;28;20485;-51
2022/08/04 13:12:40;;;;;;;11.47;10.00;;;34.90;99.90;;;;;;5024063;28;20467;-51
2022/08/04 13:15:12;;;;;;;10.17;8.60;;;35.00;99.90;;;;;;5026894;28;20482;-51
2022/08/04 13:17:50;;;;;;;10.10;9.10;;;35.10;99.90;;;;;;5030618;28;20467;-51
2022/08/04 13:20:23;;;;;;;13.23;10.17;;;35.10;99.90;;;;;;5030717;28;20482;-52
2022/08/04 13:22:50;;;;;;;16.27;10.10;;;35.20;99.90;;;;;;5024579;28;20563;-50
2022/08/04 13:25:18;;;;;;;13.60;11.13;;;35.30;99.90;;;;;;5033669;28;20521;-52
2022/08/04 13:27:47;;;;;;;16.60;11.93;;;35.30;99.90;;;;;;5021758;28;20499;-51